createdAt,value
2019-05-14T00:01:18.292Z,102870.00
2019-05-14T00:03:51.439Z,102870.00
2019-05-14T00:06:22.011Z,102862.00
2019-05-14T00:08:52.701Z,102868.00
2019-05-14T00:11:27.757Z,102854.00
2019-05-14T00:13:58.165Z,102865.00
2019-05-14T00:16:28.844Z,102861.00
2019-05-14T00:19:01.571Z,102870.00
2019-05-14T00:21:31.658Z,102863.00
2019-05-14T00:24:02.109Z,102858.00
2019-05-14T00:26:33.567Z,102863.00
2019-05-14T00:29:03.962Z,102850.00
2019-05-14T00:31:34.657Z,102853.00
2019-05-14T00:34:05.060Z,102847.00
2019-05-14T00:36:35.491Z,102842.00
2019-05-14T00:39:07.174Z,102840.00
2019-05-14T00:41:37.828Z,102846.00
2019-05-14T00:44:08.266Z,102847.00
2019-05-14T00:46:40.938Z,102850.00
2019-05-14T00:49:11.861Z,102839.00
2019-05-14T00:51:42.341Z,102841.00
2019-05-14T00:54:13.874Z,102835.00
2019-05-14T00:56:44.801Z,102838.00
2019-05-14T00:59:15.241Z,102832.00
2019-05-14T01:01:45.908Z,102833.00
2019-05-14T01:04:16.595Z,102834.00
2019-05-14T01:06:47.322Z,102834.00
2019-05-14T01:09:17.748Z,102832.00
2019-05-14T01:11:56.466Z,102826.00
2019-05-14T01:14:27.275Z,102829.00
2019-05-14T01:16:57.703Z,102837.00
2019-05-14T01:19:28.451Z,102828.00
2019-05-14T01:21:58.892Z,102831.00
2019-05-14T01:24:29.267Z,102832.00
2019-05-14T01:27:01.652Z,102830.00
2019-05-14T01:29:32.079Z,102831.00
2019-05-14T01:32:02.658Z,102822.00
2019-05-14T01:34:33.074Z,102829.00
2019-05-14T01:37:03.508Z,102824.00
2019-05-14T01:39:33.981Z,102809.00
2019-05-14T01:42:04.457Z,102800.00
2019-05-14T01:44:34.944Z,102792.00
2019-05-14T01:47:05.321Z,102792.00
2019-05-14T01:49:35.701Z,102790.00
2019-05-14T01:52:06.121Z,102784.00
2019-05-14T01:54:36.475Z,102781.00
2019-05-14T01:57:06.927Z,102782.00
2019-05-14T01:59:37.364Z,102778.00
2019-05-14T02:02:07.835Z,102788.00
2019-05-14T02:04:38.503Z,102775.00
2019-05-14T02:07:11.357Z,102773.00
2019-05-14T02:09:42.082Z,102777.00
2019-05-14T02:12:12.509Z,102769.00
2019-05-14T02:14:43.816Z,102768.00
2019-05-14T02:17:14.193Z,102776.00
2019-05-14T02:19:44.809Z,102779.00
2019-05-14T02:22:15.497Z,102776.00
2019-05-14T02:24:45.994Z,102783.00
2019-05-14T02:27:16.387Z,102783.00
2019-05-14T02:29:51.865Z,102780.00
2019-05-14T02:32:22.465Z,102787.00
2019-05-14T02:34:53.434Z,102787.00
2019-05-14T02:37:24.310Z,102794.00
2019-05-14T02:39:54.681Z,102798.00
2019-05-14T02:42:25.094Z,102792.00
2019-05-14T02:44:55.568Z,102801.00
2019-05-14T02:47:25.938Z,102802.00
2019-05-14T02:49:58.995Z,102789.00
2019-05-14T02:52:29.548Z,102805.00
2019-05-14T02:55:00.080Z,102790.00
2019-05-14T02:57:31.214Z,102800.00
2019-05-14T03:00:02.418Z,102797.00
2019-05-14T03:02:33.580Z,102797.00
2019-05-14T03:05:04.634Z,102787.00
2019-05-14T03:07:35.149Z,102791.00
2019-05-14T03:10:06.350Z,102787.00
2019-05-14T03:12:39.638Z,102789.00
2019-05-14T03:15:10.681Z,102787.00
2019-05-14T03:17:42.235Z,102775.00
2019-05-14T03:20:12.909Z,102778.00
2019-05-14T03:22:58.712Z,102782.00
2019-05-14T03:25:15.390Z,102772.00
2019-05-14T03:27:49.409Z,102783.00
2019-05-14T03:30:22.821Z,102771.00
2019-05-14T03:32:53.074Z,102771.00
2019-05-14T03:35:28.757Z,102767.00
2019-05-14T03:37:55.136Z,102772.00
2019-05-14T03:40:25.717Z,102763.00
2019-05-14T03:42:59.948Z,102763.00
2019-05-14T03:45:30.235Z,102765.00
2019-05-14T03:48:00.745Z,102769.00
2019-05-14T03:50:31.177Z,102769.00
2019-05-14T03:53:02.176Z,102772.00
2019-05-14T03:55:32.600Z,102772.00
2019-05-14T03:58:03.060Z,102764.00
2019-05-14T04:01:00.971Z,102772.00
2019-05-14T04:03:32.432Z,102775.00
2019-05-14T04:06:04.284Z,102771.00
2019-05-14T04:08:39.176Z,102759.00
2019-05-14T04:11:09.826Z,102764.00
2019-05-14T04:13:44.020Z,102769.00
2019-05-14T04:17:05.265Z,102765.00
2019-05-14T04:19:29.497Z,102772.00
2019-05-14T04:22:00.996Z,102772.00
2019-05-14T04:24:37.041Z,102770.00
2019-05-14T04:27:12.705Z,102771.00
2019-05-14T04:29:42.777Z,102777.00
2019-05-14T04:32:14.295Z,102764.00
2019-05-14T04:34:44.710Z,102758.00
2019-05-14T04:37:15.629Z,102762.00
2019-05-14T04:39:46.367Z,102768.00
2019-05-14T04:42:20.280Z,102763.00
2019-05-14T04:44:50.627Z,102763.00
2019-05-14T04:47:31.112Z,102769.00
2019-05-14T04:49:53.969Z,102760.00
2019-05-14T04:52:24.339Z,102760.00
2019-05-14T04:54:55.033Z,102753.00
2019-05-14T04:57:25.893Z,102750.00
2019-05-14T04:59:59.640Z,102753.00
2019-05-14T05:02:30.227Z,102754.00
2019-05-14T05:05:01.181Z,102752.00
2019-05-14T05:07:50.690Z,102745.00
2019-05-14T05:10:21.070Z,102748.00
2019-05-14T05:12:51.442Z,102749.00
2019-05-14T05:15:21.817Z,102742.00
2019-05-14T05:17:53.217Z,102743.00
2019-05-14T05:20:23.953Z,102751.00
2019-05-14T05:22:54.328Z,102750.00
2019-05-14T05:25:24.958Z,102751.00
2019-05-14T05:27:56.555Z,102761.00
2019-05-14T05:30:29.486Z,102754.00
2019-05-14T05:32:59.931Z,102763.00
2019-05-14T05:35:30.689Z,102761.00
2019-05-14T05:38:01.408Z,102767.00
2019-05-14T05:40:50.911Z,102768.00
2019-05-14T05:43:21.349Z,102761.00
2019-05-14T05:45:51.704Z,102768.00
2019-05-14T05:48:22.132Z,102736.00
2019-05-14T05:50:52.937Z,102764.00
2019-05-14T05:53:23.328Z,102753.00
2019-05-14T05:55:53.734Z,102746.00
2019-05-14T05:58:24.250Z,102746.00
2019-05-14T06:00:54.906Z,102746.00
2019-05-14T06:03:29.657Z,102731.00
2019-05-14T06:06:05.922Z,102732.00
2019-05-14T06:08:38.749Z,102727.00
2019-05-14T06:11:09.685Z,102729.00
2019-05-14T06:13:40.565Z,102734.00
2019-05-14T06:16:11.538Z,102721.00
2019-05-14T06:18:41.921Z,102716.00
2019-05-14T06:21:12.289Z,102722.00
2019-05-14T06:23:42.777Z,102723.00
2019-05-14T06:26:13.499Z,102726.00
2019-05-14T06:28:44.236Z,102719.00
2019-05-14T06:31:14.952Z,102722.00
2019-05-14T06:33:48.385Z,102720.00
2019-05-14T06:36:19.400Z,102717.00
2019-05-14T06:38:50.449Z,102716.00
2019-05-14T06:41:21.302Z,102714.00
2019-05-14T06:43:51.752Z,102722.00
2019-05-14T06:46:22.105Z,102723.00
2019-05-14T06:48:59.010Z,102726.00
2019-05-14T06:51:30.298Z,102727.00
2019-05-14T06:54:01.060Z,102720.00
2019-05-14T06:56:31.545Z,102725.00
2019-05-14T06:59:01.948Z,102728.00
2019-05-14T07:01:32.618Z,102742.00
2019-05-14T07:04:03.097Z,102734.00
2019-05-14T07:06:34.009Z,102728.00
2019-05-14T07:09:08.050Z,102720.00
2019-05-14T07:11:38.795Z,102724.00
2019-05-14T07:14:11.576Z,102720.00
2019-05-14T07:16:42.252Z,102723.00
2019-05-14T07:19:15.695Z,102722.00
2019-05-14T07:21:45.110Z,102722.00
2019-05-14T07:24:15.865Z,102733.00
2019-05-14T07:26:49.320Z,102736.00
2019-05-14T07:29:19.371Z,102726.00
2019-05-14T07:31:50.164Z,102732.00
2019-05-14T07:34:20.646Z,102729.00
2019-05-14T07:36:51.370Z,102736.00
2019-05-14T07:39:21.855Z,102728.00
2019-05-14T07:41:52.229Z,102733.00
2019-05-14T07:44:23.084Z,102728.00
2019-05-14T07:46:53.586Z,102726.00
2019-05-14T07:49:25.078Z,102727.00
2019-05-14T07:51:55.622Z,102727.00
2019-05-14T07:54:34.086Z,102727.00
2019-05-14T07:57:04.795Z,102727.00
2019-05-14T07:59:35.454Z,102725.00
2019-05-14T08:02:06.102Z,102738.00
2019-05-14T08:04:38.155Z,102726.00
2019-05-14T08:07:09.276Z,102735.00
2019-05-14T08:09:40.169Z,102738.00
2019-05-14T08:12:12.727Z,102726.00
2019-05-14T08:15:02.357Z,102727.00
2019-05-14T08:17:19.135Z,102729.00
2019-05-14T08:19:49.478Z,102715.00
2019-05-14T08:22:20.234Z,102710.00
2019-05-14T08:24:50.622Z,102709.00
2019-05-14T08:27:21.037Z,102693.00
2019-05-14T08:29:51.744Z,102689.00
2019-05-14T08:32:22.187Z,102667.00
2019-05-14T08:34:52.615Z,102672.00
2019-05-14T08:37:23.043Z,102671.00
2019-05-14T08:39:58.835Z,102665.00
2019-05-14T08:42:34.010Z,102670.00
2019-05-14T08:45:04.895Z,102663.00
2019-05-14T08:47:33.846Z,102683.00
2019-05-14T08:50:04.688Z,102670.00
2019-05-14T08:52:35.155Z,102680.00
2019-05-14T08:55:10.991Z,102678.00
2019-05-14T08:57:39.000Z,102680.00
2019-05-14T09:00:13.822Z,102668.00
2019-05-14T09:02:42.281Z,102670.00
2019-05-14T09:05:12.733Z,102659.00
2019-05-14T09:07:43.262Z,102670.00
2019-05-14T09:10:13.760Z,102656.00
2019-05-14T09:12:44.160Z,102657.00
2019-05-14T09:15:18.614Z,102660.00
2019-05-14T09:17:49.377Z,102653.00
2019-05-14T09:20:19.763Z,102666.00
2019-05-14T09:22:50.112Z,102665.00
2019-05-14T09:25:20.626Z,102662.00
2019-05-14T09:27:51.234Z,102663.00
2019-05-14T09:30:21.656Z,102667.00
2019-05-14T09:32:52.502Z,102667.00
2019-05-14T09:35:23.218Z,102672.00
2019-05-14T09:37:53.639Z,102676.00
2019-05-14T09:40:24.047Z,102669.00
2019-05-14T09:42:54.754Z,102666.00
2019-05-14T09:45:25.159Z,102677.00
2019-05-14T09:47:55.613Z,102659.00
2019-05-14T09:50:29.002Z,102657.00
2019-05-14T09:52:59.451Z,102652.00
2019-05-14T09:55:30.057Z,102659.00
2019-05-14T09:58:00.791Z,102664.00
2019-05-14T10:00:31.568Z,102635.00
2019-05-14T10:03:01.998Z,102629.00
2019-05-14T10:05:32.678Z,102630.00
2019-05-14T10:08:03.103Z,102630.00
2019-05-14T10:10:33.517Z,102619.00
2019-05-14T10:13:04.095Z,102614.00
2019-05-14T10:15:34.547Z,102607.00
2019-05-14T10:18:05.113Z,102604.00
2019-05-14T10:20:42.447Z,102599.00
2019-05-14T10:23:09.291Z,102604.00
2019-05-14T10:25:42.332Z,102605.00
2019-05-14T10:28:12.483Z,102601.00
2019-05-14T10:30:43.185Z,102597.00
2019-05-14T10:33:15.174Z,102590.00
2019-05-14T10:35:48.191Z,102600.00
2019-05-14T10:38:18.947Z,102589.00
2019-05-14T10:40:50.622Z,102586.00
2019-05-14T10:43:23.343Z,102590.00
2019-05-14T10:45:53.773Z,102583.00
2019-05-14T10:48:24.233Z,102588.00
2019-05-14T10:50:59.918Z,102582.00
2019-05-14T10:53:33.719Z,102586.00
2019-05-14T10:56:04.235Z,102583.00
2019-05-14T10:58:36.641Z,102579.00
2019-05-14T11:01:11.254Z,102571.00
2019-05-14T11:03:39.289Z,102569.00
2019-05-14T11:06:11.617Z,102564.00
2019-05-14T11:08:42.245Z,102569.00
2019-05-14T11:11:13.611Z,102560.00
2019-05-14T11:13:45.895Z,102557.00
2019-05-14T11:16:19.258Z,102564.00
2019-05-14T11:18:57.329Z,102564.00
2019-05-14T11:21:30.180Z,102556.00
2019-05-14T11:24:00.316Z,102545.00
2019-05-14T11:26:41.909Z,102539.00
2019-05-14T11:29:14.873Z,102543.00
2019-05-14T11:31:48.622Z,102535.00
2019-05-14T11:34:21.520Z,102521.00
2019-05-14T11:36:52.497Z,102524.00
2019-05-14T11:39:23.700Z,102520.00
2019-05-14T11:41:54.146Z,102513.00
2019-05-14T11:44:24.570Z,102523.00
2019-05-14T11:46:58.148Z,102519.00
2019-05-14T11:49:27.497Z,102516.00
2019-05-14T11:52:06.777Z,102517.00
2019-05-14T11:54:31.642Z,102515.00
2019-05-14T11:57:02.514Z,102517.00
2019-05-14T11:59:33.428Z,102505.00
2019-05-14T12:02:04.344Z,102508.00
2019-05-14T12:04:34.738Z,102510.00
2019-05-14T12:07:05.718Z,102504.00
2019-05-14T12:09:38.885Z,102498.00
2019-05-14T12:12:12.400Z,102508.00
2019-05-14T12:14:40.908Z,102498.00
2019-05-14T12:17:11.304Z,102502.00
2019-05-14T12:19:43.799Z,102485.00
2019-05-14T12:22:14.378Z,102482.00
2019-05-14T12:24:45.298Z,102474.00
2019-05-14T12:27:16.089Z,102489.00
2019-05-14T12:29:49.710Z,102476.00
2019-05-14T12:32:19.410Z,102481.00
2019-05-14T12:34:50.409Z,102477.00
2019-05-14T12:37:20.857Z,102485.00
2019-05-14T12:39:52.493Z,102470.00
2019-05-14T12:42:22.913Z,102464.00
2019-05-14T12:44:53.712Z,102471.00
2019-05-14T12:47:24.088Z,102459.00
2019-05-14T12:49:54.636Z,102470.00
2019-05-14T12:52:26.172Z,102465.00
2019-05-14T12:54:59.694Z,102443.00
2019-05-14T12:57:32.586Z,102450.00
2019-05-14T13:00:03.047Z,102448.00
2019-05-14T13:02:37.118Z,102454.00
2019-05-14T13:05:09.231Z,102455.00
2019-05-14T13:07:41.784Z,102450.00
2019-05-14T13:10:12.450Z,102445.00
2019-05-14T13:12:45.396Z,102440.00
2019-05-14T13:15:16.017Z,102425.00
2019-05-14T13:17:48.415Z,102426.00
2019-05-14T13:20:19.343Z,102423.00
2019-05-14T13:22:50.451Z,102422.00
2019-05-14T13:25:23.112Z,102421.00
2019-05-14T13:27:53.704Z,102410.00
2019-05-14T13:30:24.135Z,102405.00
2019-05-14T13:32:54.553Z,102402.00
2019-05-14T13:35:24.995Z,102397.00
2019-05-14T13:37:58.615Z,102399.00
2019-05-14T13:40:29.466Z,102396.00
2019-05-14T13:42:59.945Z,102390.00
2019-05-14T13:45:30.490Z,102384.00
2019-05-14T13:48:01.568Z,102371.00
2019-05-14T13:50:32.697Z,102373.00
2019-05-14T13:53:09.419Z,102363.00
2019-05-14T13:55:43.997Z,102368.00
2019-05-14T13:58:09.398Z,102375.00
2019-05-14T14:00:40.509Z,102363.00
2019-05-14T14:03:12.641Z,102370.00
2019-05-14T14:05:43.316Z,102366.00
2019-05-14T14:08:14.335Z,102355.00
2019-05-14T14:10:51.596Z,102354.00
2019-05-14T14:13:19.861Z,102353.00
2019-05-14T14:15:49.512Z,102340.00
2019-05-14T14:18:21.832Z,102338.00
2019-05-14T14:20:52.231Z,102333.00
2019-05-14T14:23:27.216Z,102319.00
2019-05-14T14:25:56.122Z,102334.00
2019-05-14T14:28:27.848Z,102329.00
2019-05-14T14:30:59.746Z,102330.00
2019-05-14T14:33:30.154Z,102321.00
2019-05-14T14:36:00.548Z,102323.00
2019-05-14T14:38:32.049Z,102326.00
2019-05-14T14:41:02.578Z,102332.00
2019-05-14T14:43:33.011Z,102323.00
2019-05-14T14:46:06.609Z,102313.00
2019-05-14T14:48:39.322Z,102321.00
2019-05-14T14:51:08.538Z,102320.00
2019-05-14T14:53:52.615Z,102314.00
2019-05-14T14:56:12.400Z,102312.00
2019-05-14T14:58:43.579Z,102302.00
2019-05-14T15:01:15.360Z,102309.00
2019-05-14T15:03:49.345Z,102297.00
2019-05-14T15:06:19.197Z,102291.00
2019-05-14T15:08:51.093Z,102289.00
2019-05-14T15:11:21.516Z,102297.00
2019-05-14T15:13:51.966Z,102282.00
2019-05-14T15:16:22.468Z,102283.00
2019-05-14T15:18:53.373Z,102295.00
2019-05-14T15:21:24.341Z,102281.00
2019-05-14T15:24:07.134Z,102285.00
2019-05-14T15:26:28.836Z,102276.00
2019-05-14T15:29:00.225Z,102275.00
2019-05-14T15:31:30.758Z,102280.00
2019-05-14T15:34:01.188Z,102275.00
2019-05-14T15:36:31.685Z,102270.00
2019-05-14T15:39:02.196Z,102273.00
2019-05-14T15:41:33.627Z,102267.00
2019-05-14T15:44:04.379Z,102265.00
2019-05-14T15:46:34.799Z,102267.00
2019-05-14T15:49:05.143Z,102255.00
2019-05-14T15:51:35.586Z,102251.00
2019-05-14T15:54:23.910Z,102257.00
2019-05-14T15:56:39.564Z,102259.00
2019-05-14T15:59:09.930Z,102238.00
2019-05-14T16:01:40.882Z,102251.00
2019-05-14T16:04:11.726Z,102247.00
2019-05-14T16:06:42.440Z,102243.00
2019-05-14T16:09:13.899Z,102236.00
2019-05-14T16:11:48.356Z,102238.00
2019-05-14T16:14:19.241Z,102238.00
2019-05-14T16:16:49.642Z,102236.00
2019-05-14T16:19:21.754Z,102226.00
2019-05-14T16:21:52.547Z,102230.00
2019-05-14T16:24:23.107Z,102239.00
2019-05-14T16:26:53.535Z,102227.00
2019-05-14T16:29:40.385Z,102238.00
2019-05-14T16:31:58.252Z,102236.00
2019-05-14T16:34:29.103Z,102231.00
2019-05-14T16:36:59.540Z,102231.00
2019-05-14T16:39:30.260Z,102235.00
2019-05-14T16:42:00.879Z,102223.00
2019-05-14T16:44:31.876Z,102224.00
2019-05-14T16:47:02.591Z,102221.00
2019-05-14T16:49:36.964Z,102222.00
2019-05-14T16:52:18.169Z,102219.00
2019-05-14T16:55:10.872Z,102221.00
2019-05-14T16:57:29.406Z,102221.00
2019-05-14T17:00:02.659Z,102209.00
2019-05-14T17:02:33.742Z,102223.00
2019-05-14T17:05:04.384Z,102224.00
2019-05-14T17:07:35.089Z,102225.00
2019-05-14T17:10:08.142Z,102220.00
2019-05-14T17:12:52.751Z,102220.00
2019-05-14T17:15:10.774Z,102213.00
2019-05-14T17:17:41.929Z,102212.00
2019-05-14T17:20:12.641Z,102218.00
2019-05-14T17:22:42.984Z,102207.00
2019-05-14T17:25:26.288Z,102215.00
2019-05-14T17:27:48.604Z,102211.00
2019-05-14T17:30:19.005Z,102218.00
2019-05-14T17:32:49.630Z,102202.00
2019-05-14T17:35:20.053Z,102210.00
2019-05-14T17:37:50.563Z,102207.00
2019-05-14T17:40:21.020Z,102212.00
2019-05-14T17:42:51.350Z,102213.00
2019-05-14T17:45:21.747Z,102208.00
2019-05-14T17:47:53.218Z,102207.00
2019-05-14T17:50:23.604Z,102205.00
2019-05-14T17:52:56.380Z,102201.00
2019-05-14T17:55:29.477Z,102200.00
2019-05-14T17:58:00.288Z,102211.00
2019-05-14T18:00:31.439Z,102196.00
2019-05-14T18:03:01.795Z,102196.00
2019-05-14T18:05:32.772Z,102196.00
2019-05-14T18:08:03.284Z,102190.00
2019-05-14T18:10:33.725Z,102191.00
2019-05-14T18:13:04.038Z,102195.00
2019-05-14T18:15:34.497Z,102181.00
2019-05-14T18:18:05.145Z,102187.00
2019-05-14T18:20:35.569Z,102191.00
2019-05-14T18:23:06.166Z,102194.00
2019-05-14T18:25:38.937Z,102186.00
2019-05-14T18:28:10.281Z,102184.00
2019-05-14T18:30:41.537Z,102183.00
2019-05-14T18:33:12.213Z,102189.00
2019-05-14T18:35:46.590Z,102191.00
2019-05-14T18:38:15.395Z,102185.00
2019-05-14T18:40:50.117Z,102181.00
2019-05-14T18:43:20.829Z,102179.00
2019-05-14T18:45:51.527Z,102182.00
2019-05-14T18:48:22.385Z,102188.00
2019-05-14T18:50:52.687Z,102181.00
2019-05-14T18:53:23.033Z,102184.00
2019-05-14T18:55:53.409Z,102177.00
2019-05-14T18:58:26.028Z,102183.00
2019-05-14T19:00:58.440Z,102185.00
2019-05-14T19:03:28.975Z,102183.00
2019-05-14T19:05:59.941Z,102180.00
2019-05-14T19:08:30.384Z,102180.00
2019-05-14T19:11:01.215Z,102174.00
2019-05-14T19:13:33.264Z,102179.00
2019-05-14T19:16:03.980Z,102188.00
2019-05-14T19:18:34.629Z,102190.00
2019-05-14T19:21:04.967Z,102183.00
2019-05-14T19:23:35.700Z,102181.00
2019-05-14T19:26:06.059Z,102183.00
2019-05-14T19:28:42.605Z,102184.00
2019-05-14T19:31:12.954Z,102188.00
2019-05-14T19:33:43.579Z,102189.00
2019-05-14T19:36:14.763Z,102189.00
2019-05-14T19:38:45.206Z,102191.00
2019-05-14T19:41:15.550Z,102190.00
2019-05-14T19:43:45.960Z,102194.00
2019-05-14T19:46:16.392Z,102191.00
2019-05-14T19:48:48.334Z,102191.00
2019-05-14T19:51:18.937Z,102191.00
2019-05-14T19:53:52.299Z,102190.00
2019-05-14T19:56:21.928Z,102191.00
2019-05-14T19:58:53.151Z,102189.00
2019-05-14T20:01:23.502Z,102186.00
2019-05-14T20:03:54.952Z,102188.00
2019-05-14T20:06:26.078Z,102192.00
2019-05-14T20:08:58.706Z,102200.00
2019-05-14T20:11:29.816Z,102188.00
2019-05-14T20:14:00.239Z,102185.00
2019-05-14T20:16:30.628Z,102191.00
2019-05-14T20:19:01.258Z,102191.00
2019-05-14T20:21:32.443Z,102183.00
2019-05-14T20:24:02.848Z,102192.00
2019-05-14T20:26:33.573Z,102191.00
2019-05-14T20:29:04.183Z,102191.00
2019-05-14T20:31:34.616Z,102188.00
2019-05-14T20:34:05.435Z,102186.00
2019-05-14T20:36:35.866Z,102196.00
2019-05-14T20:39:08.667Z,102192.00
2019-05-14T20:41:39.804Z,102189.00
2019-05-14T20:44:10.309Z,102191.00
2019-05-14T20:46:40.730Z,102202.00
2019-05-14T20:52:03.729Z,102193.00
2019-05-14T20:54:34.150Z,102192.00
2019-05-14T20:57:19.661Z,102200.00
2019-05-14T20:59:38.931Z,102195.00
2019-05-14T21:02:09.310Z,102201.00
2019-05-14T21:04:39.760Z,102210.00
2019-05-14T21:07:10.038Z,102197.00
2019-05-14T21:09:40.438Z,102195.00
2019-05-14T21:12:11.044Z,102194.00
2019-05-14T21:14:41.990Z,102202.00
2019-05-14T21:17:12.729Z,102195.00
2019-05-14T21:19:43.426Z,102193.00
2019-05-14T21:22:14.261Z,102194.00
2019-05-14T21:24:44.680Z,102191.00
2019-05-14T21:27:15.393Z,102189.00
2019-05-14T21:29:48.757Z,102191.00
2019-05-14T21:32:25.177Z,102183.00
2019-05-14T21:34:55.622Z,102179.00
2019-05-14T21:37:28.357Z,102189.00
2019-05-14T21:39:59.126Z,102187.00
2019-05-14T21:42:30.555Z,102192.00
2019-05-14T21:45:00.904Z,102191.00
2019-05-14T21:47:31.774Z,102183.00
2019-05-14T21:50:02.153Z,102183.00
2019-05-14T21:52:32.506Z,102188.00
2019-05-14T21:55:02.901Z,102186.00
2019-05-14T21:57:33.870Z,102188.00
2019-05-14T22:00:08.321Z,102181.00
2019-05-14T22:02:38.431Z,102194.00
2019-05-14T22:05:09.560Z,102200.00
2019-05-14T22:07:40.138Z,102186.00
2019-05-14T22:10:10.942Z,102189.00
2019-05-14T22:12:43.530Z,102191.00
2019-05-14T22:15:14.340Z,102192.00
2019-05-14T22:17:45.137Z,102188.00
2019-05-14T22:20:16.141Z,102196.00
2019-05-14T22:22:48.334Z,102188.00
2019-05-14T22:25:19.153Z,102196.00
2019-05-14T22:28:14.939Z,102184.00
2019-05-14T22:30:43.891Z,102184.00
2019-05-14T22:33:14.928Z,102186.00
2019-05-14T22:35:50.961Z,102191.00
2019-05-14T22:38:21.660Z,102201.00
2019-05-14T22:40:52.042Z,102199.00
2019-05-14T22:43:22.479Z,102192.00
2019-05-14T22:45:52.973Z,102193.00
2019-05-14T22:48:34.951Z,102191.00
2019-05-14T22:51:05.402Z,102205.00
2019-05-14T22:53:35.793Z,102193.00
2019-05-14T22:56:08.287Z,102200.00
2019-05-14T22:58:38.996Z,102192.00
2019-05-14T23:01:14.878Z,102199.00
2019-05-14T23:03:41.877Z,102195.00
2019-05-14T23:06:12.368Z,102199.00
2019-05-14T23:09:01.997Z,102185.00
2019-05-14T23:11:32.439Z,102190.00
2019-05-14T23:14:04.096Z,102189.00
2019-05-14T23:16:39.408Z,102185.00
2019-05-14T23:19:07.967Z,102178.00
2019-05-14T23:21:39.245Z,102186.00
2019-05-14T23:24:10.036Z,102182.00
2019-05-14T23:26:40.758Z,102181.00
2019-05-14T23:29:11.151Z,102186.00
2019-05-14T23:31:41.658Z,102179.00
2019-05-14T23:34:12.650Z,102178.00
2019-05-14T23:36:48.328Z,102180.00
2019-05-14T23:39:20.207Z,102181.00
2019-05-14T23:41:52.436Z,102167.00
2019-05-14T23:44:22.820Z,102168.00
2019-05-14T23:46:53.160Z,102171.00
2019-05-14T23:49:23.592Z,102175.00
2019-05-14T23:52:05.388Z,102178.00
2019-05-14T23:54:38.206Z,102162.00
2019-05-14T23:57:08.959Z,102161.00
2019-05-14T23:59:39.932Z,102161.00
